createdAt,value
2018-10-17T00:00:42.621Z,28.90
2018-10-17T00:01:42.754Z,29.10
2018-10-17T00:02:42.885Z,28.10
2018-10-17T00:03:43.015Z,27.90
2018-10-17T00:04:43.170Z,31.40
2018-10-17T00:05:43.294Z,27.40
2018-10-17T00:06:43.428Z,25.90
2018-10-17T00:07:43.567Z,29.70
2018-10-17T00:08:43.702Z,27.90
2018-10-17T00:09:43.837Z,30.70
2018-10-17T00:10:43.969Z,28.30
2018-10-17T00:11:44.164Z,29.70
2018-10-17T00:12:44.328Z,38.30
2018-10-17T00:13:44.334Z,37.00
2018-10-17T00:14:44.469Z,35.20
2018-10-17T00:15:44.624Z,30.90
2018-10-17T00:16:44.756Z,36.40
2018-10-17T00:17:44.895Z,33.80
2018-10-17T00:18:45.078Z,34.50
2018-10-17T00:19:45.194Z,29.30
2018-10-17T00:20:45.327Z,26.50
2018-10-17T00:21:45.490Z,27.40
2018-10-17T00:22:45.654Z,29.10
2018-10-17T00:23:45.788Z,26.40
2018-10-17T00:24:45.985Z,26.50
2018-10-17T00:25:46.074Z,25.90
2018-10-17T00:26:46.204Z,25.60
2018-10-17T00:27:46.340Z,24.60
2018-10-17T00:28:46.511Z,25.10
2018-10-17T00:29:46.619Z,23.70
2018-10-17T00:30:46.752Z,25.90
2018-10-17T00:31:46.887Z,25.50
2018-10-17T00:32:47.049Z,24.60
2018-10-17T00:33:47.189Z,29.30
2018-10-17T00:34:47.944Z,25.70
2018-10-17T00:35:47.506Z,28.20
2018-10-17T00:36:47.633Z,26.10
2018-10-17T00:37:47.785Z,26.70
2018-10-17T00:38:47.939Z,26.20
2018-10-17T00:39:48.073Z,25.80
2018-10-17T00:40:48.212Z,26.30
2018-10-17T00:41:48.337Z,26.80
2018-10-17T00:42:48.486Z,27.00
2018-10-17T00:43:48.621Z,27.00
2018-10-17T00:44:48.749Z,27.10
2018-10-17T00:45:48.901Z,26.80
2018-10-17T00:46:49.039Z,26.60
2018-10-17T00:47:49.169Z,26.30
2018-10-17T00:48:49.312Z,25.10
2018-10-17T00:49:49.441Z,25.90
2018-10-17T00:50:49.596Z,39.50
2018-10-17T00:51:49.729Z,57.30
2018-10-17T00:52:49.870Z,43.00
2018-10-17T00:53:50.004Z,72.00
2018-10-17T00:54:50.933Z,38.40
2018-10-17T00:55:50.292Z,45.70
2018-10-17T00:56:50.430Z,76.70
2018-10-17T00:57:50.600Z,72.90
2018-10-17T00:58:50.713Z,51.70
2018-10-17T00:59:50.850Z,59.40
2018-10-17T01:00:51.039Z,82.60
2018-10-17T01:01:51.139Z,47.50
2018-10-17T01:02:51.282Z,43.50
2018-10-17T01:03:51.437Z,39.40
2018-10-17T01:04:51.586Z,49.10
2018-10-17T01:05:51.699Z,34.00
2018-10-17T01:06:51.869Z,75.20
2018-10-17T01:07:52.009Z,72.00
2018-10-17T01:08:52.150Z,33.40
2018-10-17T01:09:52.285Z,41.40
2018-10-17T01:10:52.447Z,38.60
2018-10-17T01:11:52.563Z,30.60
2018-10-17T01:12:52.709Z,46.60
2018-10-17T01:13:52.825Z,49.30
2018-10-17T01:14:52.959Z,57.90
2018-10-17T01:15:53.106Z,57.10
2018-10-17T01:16:53.247Z,55.70
2018-10-17T01:17:53.365Z,41.40
2018-10-17T01:18:54.435Z,46.60
2018-10-17T01:19:53.665Z,55.30
2018-10-17T01:20:53.789Z,58.70
2018-10-17T01:21:53.964Z,35.40
2018-10-17T01:22:54.110Z,58.90
2018-10-17T01:23:54.254Z,53.50
2018-10-17T01:24:54.424Z,34.00
2018-10-17T01:25:54.518Z,37.30
2018-10-17T01:26:54.674Z,37.20
2018-10-17T01:27:54.807Z,35.50
2018-10-17T01:28:54.957Z,47.80
2018-10-17T01:29:55.073Z,53.70
2018-10-17T01:30:55.262Z,49.00
2018-10-17T01:31:55.339Z,48.70
2018-10-17T01:32:55.471Z,39.80
2018-10-17T01:33:55.609Z,30.00
2018-10-17T01:34:55.801Z,46.70
2018-10-17T01:35:55.897Z,29.70
2018-10-17T01:36:56.082Z,30.20
2018-10-17T01:37:56.167Z,36.00
2018-10-17T01:38:56.306Z,27.90
2018-10-17T01:39:56.438Z,35.80
2018-10-17T01:40:56.572Z,27.50
2018-10-17T01:41:56.695Z,27.10
2018-10-17T01:42:56.863Z,41.80
2018-10-17T01:43:56.967Z,31.60
2018-10-17T01:44:57.098Z,28.80
2018-10-17T01:45:57.237Z,28.80
2018-10-17T01:46:58.242Z,44.00
2018-10-17T01:47:57.499Z,28.50
2018-10-17T01:48:57.637Z,30.50
2018-10-17T01:49:57.760Z,28.50
2018-10-17T01:50:57.961Z,28.60
2018-10-17T01:51:57.973Z,28.40
2018-10-17T01:52:58.110Z,32.70
2018-10-17T01:53:58.242Z,35.40
2018-10-17T01:54:58.378Z,45.00
2018-10-17T01:55:58.505Z,39.30
2018-10-17T01:56:58.658Z,32.40
2018-10-17T01:57:58.791Z,40.00
2018-10-17T01:58:58.981Z,32.50
2018-10-17T01:59:59.058Z,29.70
2018-10-17T02:00:59.216Z,41.90
2018-10-17T02:01:59.352Z,43.00
2018-10-17T02:02:59.471Z,35.50
2018-10-17T02:03:59.607Z,45.40
2018-10-17T02:04:59.799Z,41.70
2018-10-17T02:05:59.897Z,42.80
2018-10-17T02:07:00.032Z,35.30
2018-10-17T02:08:00.171Z,58.10
2018-10-17T02:09:00.314Z,45.30
2018-10-17T02:10:00.443Z,29.30
2018-10-17T02:11:00.603Z,41.60
2018-10-17T02:12:00.726Z,43.70
2018-10-17T02:13:00.887Z,35.90
2018-10-17T02:14:00.984Z,33.70
2018-10-17T02:15:01.117Z,23.90
2018-10-17T02:16:01.252Z,21.30
2018-10-17T02:17:02.044Z,20.50
2018-10-17T02:18:01.527Z,21.80
2018-10-17T02:19:01.729Z,19.70
2018-10-17T02:20:02.506Z,21.00
2018-10-17T02:21:01.923Z,21.00
2018-10-17T02:22:02.060Z,22.00
2018-10-17T02:23:02.253Z,21.80
2018-10-17T02:24:02.331Z,22.70
2018-10-17T02:25:02.551Z,21.00
2018-10-17T02:26:02.603Z,22.20
2018-10-17T02:27:02.732Z,27.60
2018-10-17T02:28:02.873Z,42.20
2018-10-17T02:29:03.031Z,52.10
2018-10-17T02:30:03.300Z,54.30
2018-10-17T02:31:03.326Z,48.70
2018-10-17T02:32:03.431Z,73.70
2018-10-17T02:33:03.574Z,23.00
2018-10-17T02:34:03.715Z,23.70
2018-10-17T02:35:03.902Z,23.80
2018-10-17T02:36:03.986Z,23.10
2018-10-17T02:37:04.183Z,24.10
2018-10-17T02:38:04.252Z,22.70
2018-10-17T02:39:04.384Z,45.60
2018-10-17T02:40:04.516Z,31.70
2018-10-17T02:41:04.691Z,37.00
2018-10-17T02:42:04.786Z,32.30
2018-10-17T02:43:05.000Z,31.40
2018-10-17T02:44:05.065Z,31.10
2018-10-17T02:45:05.195Z,23.60
2018-10-17T02:46:05.394Z,28.00
2018-10-17T02:47:05.507Z,23.60
2018-10-17T02:48:05.566Z,22.60
2018-10-17T02:49:05.715Z,24.40
2018-10-17T02:50:05.831Z,23.00
2018-10-17T02:51:05.966Z,23.60
2018-10-17T02:52:06.137Z,22.60
2018-10-17T02:53:06.281Z,22.70
2018-10-17T02:54:06.413Z,22.50
2018-10-17T02:55:06.574Z,23.30
2018-10-17T02:56:06.699Z,22.80
2018-10-17T02:57:06.833Z,23.40
2018-10-17T02:58:06.971Z,22.90
2018-10-17T02:59:07.193Z,23.00
2018-10-17T03:00:07.241Z,25.30
2018-10-17T03:01:07.403Z,43.90
2018-10-17T03:02:07.519Z,33.50
2018-10-17T03:03:07.653Z,32.00
2018-10-17T03:04:07.794Z,33.50
2018-10-17T03:05:07.954Z,42.40
2018-10-17T03:06:08.082Z,29.90
2018-10-17T03:07:08.284Z,31.90
2018-10-17T03:08:08.347Z,32.70
2018-10-17T03:09:08.485Z,29.00
2018-10-17T03:10:08.621Z,27.10
2018-10-17T03:11:08.784Z,27.80
2018-10-17T03:12:08.903Z,30.80
2018-10-17T03:13:09.100Z,32.90
2018-10-17T03:14:09.176Z,27.30
2018-10-17T03:15:09.313Z,35.60
2018-10-17T03:16:09.446Z,34.50
2018-10-17T03:17:09.652Z,59.60
2018-10-17T03:18:09.762Z,31.40
2018-10-17T03:19:09.972Z,43.50
2018-10-17T03:20:10.025Z,34.40
2018-10-17T03:21:10.177Z,43.00
2018-10-17T03:22:10.355Z,47.60
2018-10-17T03:23:10.549Z,40.40
2018-10-17T03:24:10.604Z,39.10
2018-10-17T03:25:10.847Z,38.50
2018-10-17T03:26:10.887Z,37.50
2018-10-17T03:27:11.022Z,36.40
2018-10-17T03:28:11.168Z,44.50
2018-10-17T03:29:11.407Z,43.30
2018-10-17T03:30:11.430Z,40.30
2018-10-17T03:31:11.597Z,31.10
2018-10-17T03:32:11.699Z,30.50
2018-10-17T03:33:11.837Z,36.20
2018-10-17T03:34:11.973Z,28.20
2018-10-17T03:35:12.152Z,31.30
2018-10-17T03:36:12.241Z,29.40
2018-10-17T03:37:12.477Z,36.20
2018-10-17T03:38:12.516Z,39.80
2018-10-17T03:39:12.657Z,33.60
2018-10-17T03:40:12.779Z,44.40
2018-10-17T03:41:12.985Z,36.40
2018-10-17T03:42:13.054Z,34.20
2018-10-17T03:43:13.212Z,33.60
2018-10-17T03:44:13.320Z,30.30
2018-10-17T03:45:13.461Z,39.90
2018-10-17T03:46:13.620Z,51.40
2018-10-17T03:47:13.856Z,36.60
2018-10-17T03:48:13.890Z,26.80
2018-10-17T03:49:14.168Z,31.10
2018-10-17T03:50:14.197Z,48.90
2018-10-17T03:51:14.335Z,36.10
2018-10-17T03:52:14.473Z,42.50
2018-10-17T03:53:14.664Z,33.90
2018-10-17T03:54:14.738Z,37.40
2018-10-17T03:55:14.947Z,63.80
2018-10-17T03:56:15.012Z,50.40
2018-10-17T03:57:15.152Z,45.70
2018-10-17T03:58:15.287Z,36.40
2018-10-17T03:59:16.217Z,42.20
2018-10-17T04:00:15.556Z,39.50
2018-10-17T04:01:15.806Z,33.30
2018-10-17T04:02:15.859Z,32.60
2018-10-17T04:03:16.125Z,41.50
2018-10-17T04:04:16.176Z,42.60
2018-10-17T04:05:16.433Z,29.60
2018-10-17T04:06:16.450Z,44.50
2018-10-17T04:07:16.631Z,44.90
2018-10-17T04:08:16.721Z,43.60
2018-10-17T04:09:16.890Z,41.50
2018-10-17T04:10:17.026Z,40.30
2018-10-17T04:11:17.238Z,71.20
2018-10-17T04:12:17.290Z,39.40
2018-10-17T04:13:17.515Z,49.10
2018-10-17T04:14:17.576Z,55.70
2018-10-17T04:15:17.713Z,21.90
2018-10-17T04:16:17.850Z,34.10
2018-10-17T04:17:18.094Z,47.80
2018-10-17T04:18:18.136Z,31.40
2018-10-17T04:19:18.303Z,40.50
2018-10-17T04:20:18.404Z,46.10
2018-10-17T04:21:18.540Z,35.70
2018-10-17T04:22:18.687Z,33.90
2018-10-17T04:23:18.878Z,45.60
2018-10-17T04:24:18.957Z,46.30
2018-10-17T04:25:19.165Z,51.80
2018-10-17T04:26:19.227Z,48.70
2018-10-17T04:27:19.364Z,48.10
2018-10-17T04:28:19.498Z,39.10
2018-10-17T04:29:19.631Z,38.90
2018-10-17T04:30:19.766Z,39.50
2018-10-17T04:31:20.010Z,34.80
2018-10-17T04:32:20.071Z,44.00
2018-10-17T04:33:20.209Z,44.10
2018-10-17T04:34:20.323Z,35.90
2018-10-17T04:35:20.498Z,54.80
2018-10-17T04:36:20.715Z,39.70
2018-10-17T04:37:20.728Z,32.60
2018-10-17T04:38:20.859Z,28.30
2018-10-17T04:39:20.992Z,28.30
2018-10-17T04:40:21.127Z,21.00
2018-10-17T04:41:21.259Z,26.40
2018-10-17T04:42:21.390Z,21.00
2018-10-17T04:43:21.527Z,23.10
2018-10-17T04:44:21.668Z,22.80
2018-10-17T04:45:21.800Z,25.20
2018-10-17T04:46:21.934Z,24.30
2018-10-17T04:47:22.089Z,23.70
2018-10-17T04:48:22.219Z,23.40
2018-10-17T04:49:22.353Z,28.70
2018-10-17T04:50:22.486Z,23.60
2018-10-17T04:51:22.626Z,30.40
2018-10-17T04:52:22.771Z,25.90
2018-10-17T04:53:22.902Z,27.10
2018-10-17T04:54:23.043Z,25.40
2018-10-17T04:55:23.184Z,33.40
2018-10-17T04:56:23.315Z,27.50
2018-10-17T04:57:23.450Z,28.80
2018-10-17T04:58:23.589Z,38.10
2018-10-17T04:59:23.724Z,31.50
2018-10-17T05:00:23.871Z,31.30
2018-10-17T05:01:24.009Z,27.40
2018-10-17T05:02:24.150Z,29.20
2018-10-17T05:03:24.287Z,24.00
2018-10-17T05:04:24.452Z,29.90
2018-10-17T05:05:24.565Z,33.00
2018-10-17T05:06:24.704Z,30.10
2018-10-17T05:07:24.917Z,35.40
2018-10-17T05:08:24.966Z,31.00
2018-10-17T05:09:25.104Z,34.10
2018-10-17T05:10:25.239Z,34.10
2018-10-17T05:11:25.371Z,28.70
2018-10-17T05:12:25.518Z,26.10
2018-10-17T05:13:25.643Z,25.60
2018-10-17T05:14:25.806Z,30.80
2018-10-17T05:15:25.922Z,26.70
2018-10-17T05:16:26.053Z,36.10
2018-10-17T05:17:26.190Z,35.20
2018-10-17T05:18:26.343Z,38.90
2018-10-17T05:19:26.482Z,39.70
2018-10-17T05:20:26.617Z,36.70
2018-10-17T05:21:26.752Z,33.70
2018-10-17T05:22:26.890Z,34.60
2018-10-17T05:23:27.027Z,36.50
2018-10-17T05:24:27.158Z,40.00
2018-10-17T05:25:27.296Z,35.40
2018-10-17T05:26:27.429Z,34.30
2018-10-17T05:27:27.587Z,29.10
2018-10-17T05:28:27.720Z,35.80
2018-10-17T05:29:27.879Z,30.70
2018-10-17T05:30:27.981Z,38.60
2018-10-17T05:31:28.147Z,42.20
2018-10-17T05:32:28.267Z,45.10
2018-10-17T05:33:28.403Z,38.00
2018-10-17T05:34:28.543Z,41.10
2018-10-17T05:35:28.673Z,46.10
2018-10-17T05:36:28.807Z,46.30
2018-10-17T05:37:29.014Z,43.00
2018-10-17T05:38:29.123Z,47.80
2018-10-17T05:39:29.250Z,33.30
2018-10-17T05:40:29.424Z,34.90
2018-10-17T05:41:29.571Z,38.70
2018-10-17T05:42:30.366Z,37.50
2018-10-17T05:43:29.842Z,40.00
2018-10-17T05:44:30.069Z,31.90
2018-10-17T05:45:30.126Z,30.20
2018-10-17T05:46:30.260Z,28.40
2018-10-17T05:47:30.397Z,33.00
2018-10-17T05:48:30.576Z,33.80
2018-10-17T05:49:30.664Z,37.30
2018-10-17T05:50:30.802Z,37.30
2018-10-17T05:51:30.937Z,33.80
2018-10-17T05:52:31.073Z,38.20
2018-10-17T05:53:31.207Z,55.10
2018-10-17T05:54:31.338Z,61.10
2018-10-17T05:55:31.491Z,56.70
2018-10-17T05:56:31.606Z,50.20
2018-10-17T05:57:31.743Z,55.20
2018-10-17T05:58:31.877Z,61.70
2018-10-17T05:59:32.020Z,62.40
2018-10-17T06:00:32.152Z,66.70
2018-10-17T06:01:32.419Z,48.30
2018-10-17T06:02:32.488Z,50.00
2018-10-17T06:03:32.559Z,67.80
2018-10-17T06:04:32.694Z,72.00
2018-10-17T06:05:32.830Z,68.20
2018-10-17T06:06:32.968Z,59.40
2018-10-17T06:07:33.097Z,60.00
2018-10-17T06:08:33.230Z,58.80
2018-10-17T06:09:33.364Z,63.80
2018-10-17T06:10:33.516Z,104.50
2018-10-17T06:11:33.654Z,92.60
2018-10-17T06:12:33.797Z,59.90
2018-10-17T06:13:33.933Z,73.40
2018-10-17T06:14:34.070Z,114.20
2018-10-17T06:15:34.224Z,52.40
2018-10-17T06:16:34.357Z,57.30
2018-10-17T06:17:34.489Z,58.30
2018-10-17T06:18:34.641Z,65.10
2018-10-17T06:19:34.771Z,53.50
2018-10-17T06:20:34.905Z,59.30
2018-10-17T06:21:35.039Z,54.70
2018-10-17T06:22:35.175Z,52.60
2018-10-17T06:23:35.304Z,52.20
2018-10-17T06:24:35.441Z,48.30
2018-10-17T06:25:35.584Z,52.70
2018-10-17T06:26:35.715Z,39.70
2018-10-17T06:27:35.845Z,35.60
2018-10-17T06:28:35.987Z,29.60
2018-10-17T06:29:36.116Z,42.10
2018-10-17T06:30:36.312Z,35.60
2018-10-17T06:31:36.389Z,28.40
2018-10-17T06:32:36.528Z,33.10
2018-10-17T06:33:36.667Z,33.20
2018-10-17T06:34:36.842Z,34.00
2018-10-17T06:35:36.934Z,36.00
2018-10-17T06:36:37.077Z,33.90
2018-10-17T06:37:37.212Z,33.50
2018-10-17T06:38:37.355Z,31.90
2018-10-17T06:39:37.496Z,39.80
2018-10-17T06:40:37.632Z,39.60
2018-10-17T06:41:37.772Z,36.00
2018-10-17T06:42:37.908Z,51.50
2018-10-17T06:43:38.104Z,41.70
2018-10-17T06:44:38.183Z,40.70
2018-10-17T06:45:38.335Z,44.10
2018-10-17T06:46:38.451Z,44.60
2018-10-17T06:47:38.585Z,50.60
2018-10-17T06:48:38.728Z,40.70
2018-10-17T06:49:38.866Z,40.00
2018-10-17T06:50:38.993Z,40.10
2018-10-17T06:51:39.126Z,46.40
2018-10-17T06:52:39.267Z,38.40
2018-10-17T06:53:39.449Z,39.80
2018-10-17T06:54:39.523Z,38.30
2018-10-17T06:55:39.653Z,42.80
2018-10-17T06:56:39.789Z,42.90
2018-10-17T06:57:39.922Z,42.50
2018-10-17T06:58:40.056Z,40.70
2018-10-17T06:59:40.195Z,43.20
2018-10-17T07:00:40.324Z,42.30
2018-10-17T07:01:40.505Z,43.10
2018-10-17T07:02:41.368Z,40.90
2018-10-17T07:03:40.788Z,40.80
2018-10-17T07:04:40.923Z,36.90
2018-10-17T07:05:41.054Z,39.20
2018-10-17T07:06:41.195Z,42.20
2018-10-17T07:07:41.324Z,52.30
2018-10-17T07:08:41.509Z,34.80
2018-10-17T07:09:41.597Z,48.10
2018-10-17T07:10:41.728Z,40.40
2018-10-17T07:11:41.862Z,42.90
2018-10-17T07:12:41.997Z,33.70
2018-10-17T07:13:42.131Z,41.20
2018-10-17T07:14:42.302Z,37.90
2018-10-17T07:15:42.556Z,35.80
2018-10-17T07:16:42.572Z,32.70
2018-10-17T07:17:42.705Z,32.10
2018-10-17T07:18:42.840Z,30.90
2018-10-17T07:19:42.977Z,39.70
2018-10-17T07:20:43.152Z,34.20
2018-10-17T07:21:43.284Z,36.60
2018-10-17T07:22:43.420Z,41.00
2018-10-17T07:23:43.563Z,38.40
2018-10-17T07:24:43.709Z,36.20
2018-10-17T07:25:43.842Z,30.60
2018-10-17T07:26:44.058Z,36.30
2018-10-17T07:27:44.066Z,33.90
2018-10-17T07:28:44.290Z,27.50
2018-10-17T07:29:44.538Z,26.80
2018-10-17T07:30:44.476Z,31.80
2018-10-17T07:31:44.609Z,33.00
2018-10-17T07:32:44.784Z,27.00
2018-10-17T07:33:44.914Z,31.30
2018-10-17T07:34:45.049Z,28.80
2018-10-17T07:35:45.250Z,29.00
2018-10-17T07:36:45.329Z,29.00
2018-10-17T07:37:45.471Z,33.40
2018-10-17T07:38:45.602Z,37.80
2018-10-17T07:39:46.681Z,34.10
2018-10-17T07:42:18.621Z,32.50
2018-10-17T07:43:18.740Z,53.80
2018-10-17T07:44:18.868Z,26.40
2018-10-17T07:45:19.012Z,23.00
2018-10-17T07:46:19.146Z,23.00
2018-10-17T07:47:19.279Z,22.10
2018-10-17T07:48:19.408Z,22.10
2018-10-17T07:49:19.551Z,22.30
2018-10-17T07:50:19.684Z,21.50
2018-10-17T07:51:19.821Z,21.60
2018-10-17T07:52:19.951Z,22.60
2018-10-17T07:53:20.145Z,24.60
2018-10-17T07:54:20.286Z,22.60
2018-10-17T07:55:20.376Z,22.10
2018-10-17T07:56:20.507Z,21.90
2018-10-17T07:57:20.645Z,22.70
2018-10-17T07:58:20.785Z,22.10
2018-10-17T07:59:20.917Z,22.30
2018-10-17T08:00:21.096Z,23.10
2018-10-17T08:01:21.183Z,22.40
2018-10-17T08:02:21.312Z,22.00
2018-10-17T08:03:21.448Z,21.70
2018-10-17T08:04:21.584Z,26.20
2018-10-17T08:05:21.718Z,31.70
2018-10-17T08:06:21.862Z,23.30
2018-10-17T08:07:21.991Z,23.50
2018-10-17T08:08:22.123Z,23.70
2018-10-17T08:09:22.254Z,23.80
2018-10-17T08:10:22.387Z,22.40
2018-10-17T08:11:22.532Z,23.60
2018-10-17T08:12:22.758Z,23.30
2018-10-17T08:13:22.800Z,23.10
2018-10-17T08:14:22.938Z,28.20
2018-10-17T08:15:23.072Z,23.20
2018-10-17T08:16:23.211Z,23.00
2018-10-17T08:17:23.351Z,25.10
2018-10-17T08:18:23.483Z,37.50
2018-10-17T08:19:23.627Z,23.20
2018-10-17T08:20:23.773Z,24.70
2018-10-17T08:21:23.912Z,22.20
2018-10-17T08:22:24.037Z,23.30
2018-10-17T08:23:24.177Z,24.30
2018-10-17T08:24:24.325Z,28.70
2018-10-17T08:25:24.456Z,23.20
2018-10-17T08:26:24.593Z,23.70
2018-10-17T08:27:24.739Z,24.80
2018-10-17T08:28:24.863Z,26.10
2018-10-17T08:29:24.999Z,27.60
2018-10-17T08:30:25.134Z,26.30
2018-10-17T08:31:25.276Z,27.40
2018-10-17T08:32:25.407Z,46.00
2018-10-17T08:33:25.549Z,36.90
2018-10-17T08:34:25.679Z,42.10
2018-10-17T08:35:25.898Z,29.20
2018-10-17T08:36:26.150Z,28.70
2018-10-17T08:37:26.344Z,27.70
2018-10-17T08:38:26.219Z,29.10
2018-10-17T08:39:26.347Z,29.40
2018-10-17T08:40:26.480Z,36.20
2018-10-17T08:41:26.617Z,37.80
2018-10-17T08:42:26.753Z,36.70
2018-10-17T08:43:26.881Z,36.60
2018-10-17T08:44:27.023Z,30.00
2018-10-17T08:45:27.161Z,29.90
2018-10-17T08:46:27.290Z,31.50
2018-10-17T08:47:27.425Z,27.40
2018-10-17T08:48:28.389Z,30.40
2018-10-17T08:49:28.371Z,25.90
2018-10-17T08:50:27.794Z,24.90
2018-10-17T08:51:27.922Z,27.30
2018-10-17T08:52:28.078Z,26.70
2018-10-17T08:53:28.213Z,24.80
2018-10-17T08:54:28.346Z,24.30
2018-10-17T08:55:28.489Z,25.00
2018-10-17T08:56:28.620Z,24.00
2018-10-17T08:57:28.753Z,23.40
2018-10-17T08:58:28.886Z,22.90
2018-10-17T08:59:29.030Z,21.40
2018-10-17T09:00:29.166Z,21.00
2018-10-17T09:01:29.307Z,26.30
2018-10-17T09:02:29.439Z,22.30
2018-10-17T09:03:29.569Z,24.90
2018-10-17T09:04:29.698Z,20.90
2018-10-17T09:05:29.835Z,19.60
2018-10-17T09:06:29.974Z,20.00
2018-10-17T09:07:30.115Z,19.80
2018-10-17T09:08:30.250Z,19.60
2018-10-17T09:09:30.388Z,19.00
2018-10-17T09:10:30.530Z,21.30
2018-10-17T09:11:30.671Z,22.00
2018-10-17T09:12:30.807Z,26.20
2018-10-17T09:13:31.044Z,24.00
2018-10-17T09:14:31.078Z,24.30
2018-10-17T09:15:31.218Z,23.90
2018-10-17T09:16:31.357Z,22.40
2018-10-17T09:17:31.490Z,24.70
2018-10-17T09:18:31.635Z,21.10
2018-10-17T09:19:31.886Z,21.10
2018-10-17T09:20:32.242Z,22.10
2018-10-17T09:21:32.432Z,32.40
2018-10-17T09:22:32.289Z,23.80
2018-10-17T09:23:32.331Z,22.70
2018-10-17T09:24:32.472Z,22.20
2018-10-17T09:25:32.649Z,24.50
2018-10-17T09:26:32.758Z,23.80
2018-10-17T09:27:32.895Z,24.80
2018-10-17T09:28:33.034Z,21.70
2018-10-17T09:29:33.173Z,19.30
2018-10-17T09:30:33.481Z,20.70
2018-10-17T09:31:33.443Z,20.20
2018-10-17T09:32:33.580Z,20.50
2018-10-17T09:33:33.708Z,21.00
2018-10-17T09:34:33.848Z,20.90
2018-10-17T09:35:34.041Z,20.70
2018-10-17T09:36:34.133Z,20.50
2018-10-17T09:37:34.268Z,20.10
2018-10-17T09:38:34.405Z,20.80
2018-10-17T09:39:34.543Z,20.90
2018-10-17T09:40:34.677Z,22.40
2018-10-17T09:41:34.812Z,21.80
2018-10-17T09:42:34.946Z,21.40
2018-10-17T09:43:35.076Z,19.70
2018-10-17T09:44:35.212Z,19.50
2018-10-17T09:45:35.346Z,20.00
2018-10-17T09:46:35.483Z,19.20
2018-10-17T09:47:35.618Z,20.30
2018-10-17T09:48:35.756Z,19.90
2018-10-17T09:49:35.893Z,19.40
2018-10-17T09:50:36.043Z,18.90
2018-10-17T09:51:36.181Z,19.50
2018-10-17T09:52:36.331Z,19.70
2018-10-17T09:53:36.463Z,19.80
2018-10-17T09:54:36.603Z,19.00
2018-10-17T09:55:36.737Z,19.80
2018-10-17T09:56:36.885Z,19.80
2018-10-17T09:57:37.027Z,18.30
2018-10-17T09:58:37.164Z,19.50
2018-10-17T09:59:37.301Z,19.80
2018-10-17T10:00:37.439Z,19.60
2018-10-17T10:01:37.637Z,20.40
2018-10-17T10:02:37.777Z,19.90
2018-10-17T10:03:37.917Z,19.40
2018-10-17T10:04:38.052Z,19.40
2018-10-17T10:05:38.197Z,20.80
2018-10-17T10:06:38.332Z,20.40
2018-10-17T10:07:38.471Z,20.40
2018-10-17T10:08:38.608Z,19.60
2018-10-17T10:09:38.757Z,21.30
2018-10-17T10:10:38.892Z,21.60
2018-10-17T10:11:39.026Z,22.10
2018-10-17T10:12:39.168Z,20.30
2018-10-17T10:13:39.303Z,22.10
2018-10-17T10:14:39.442Z,20.80
2018-10-17T10:15:39.580Z,23.30
2018-10-17T10:16:39.721Z,20.80
2018-10-17T10:17:39.945Z,20.10
2018-10-17T10:18:39.999Z,19.30
2018-10-17T10:19:40.893Z,18.40
2018-10-17T10:22:12.250Z,17.80
2018-10-17T10:23:12.416Z,17.90
2018-10-17T10:24:12.537Z,17.70
2018-10-17T10:25:12.709Z,18.00
2018-10-17T10:26:12.777Z,17.10
2018-10-17T10:27:12.921Z,17.30
2018-10-17T10:28:13.161Z,16.40
2018-10-17T10:29:13.199Z,16.10
2018-10-17T10:30:13.396Z,31.30
2018-10-17T10:31:13.476Z,155.00
2018-10-17T10:32:13.611Z,402.50
2018-10-17T10:33:13.745Z,418.30
2018-10-17T10:34:13.913Z,350.10
2018-10-17T10:35:14.031Z,92.10
2018-10-17T10:36:14.247Z,21.60
2018-10-17T10:37:14.362Z,19.20
2018-10-17T10:38:14.498Z,76.10
2018-10-17T10:39:14.635Z,111.50
2018-10-17T10:40:14.784Z,19.60
2018-10-17T10:41:14.909Z,32.90
2018-10-17T10:42:15.103Z,17.60
2018-10-17T10:43:15.184Z,19.10
2018-10-17T10:44:15.398Z,20.20
2018-10-17T10:45:15.555Z,17.80
2018-10-17T10:46:15.626Z,16.80
2018-10-17T10:47:15.766Z,16.00
2018-10-17T10:48:15.969Z,16.30
2018-10-17T10:49:16.978Z,16.20
2018-10-17T10:50:16.262Z,15.50
2018-10-17T10:51:16.470Z,15.90
2018-10-17T10:52:16.503Z,16.90
2018-10-17T10:53:16.643Z,18.60
2018-10-17T10:54:16.820Z,19.10
2018-10-17T10:55:16.934Z,21.00
2018-10-17T10:56:17.089Z,18.70
2018-10-17T10:57:17.273Z,15.00
2018-10-17T10:58:17.454Z,15.00
2018-10-17T10:59:17.702Z,16.10
2018-10-17T11:00:17.651Z,16.10
2018-10-17T11:01:17.785Z,16.40
2018-10-17T11:02:18.010Z,16.10
2018-10-17T11:03:18.073Z,14.50
2018-10-17T11:04:18.215Z,15.60
2018-10-17T11:05:18.444Z,14.40
2018-10-17T11:06:18.492Z,15.00
2018-10-17T11:07:18.634Z,15.00
2018-10-17T11:08:18.868Z,16.80
2018-10-17T11:09:18.915Z,16.90
2018-10-17T11:10:19.055Z,17.80
2018-10-17T11:11:19.312Z,17.40
2018-10-17T11:12:19.345Z,19.30
2018-10-17T11:13:19.492Z,18.30
2018-10-17T11:14:19.829Z,17.50
2018-10-17T11:15:19.768Z,17.60
2018-10-17T11:16:19.909Z,16.60
2018-10-17T11:17:20.042Z,16.40
2018-10-17T11:18:20.263Z,15.90
2018-10-17T11:19:20.296Z,15.40
2018-10-17T11:20:20.439Z,15.10
2018-10-17T11:21:20.596Z,14.50
2018-10-17T11:22:20.744Z,14.40
2018-10-17T11:23:21.002Z,15.60
2018-10-17T11:24:21.123Z,15.30
2018-10-17T11:25:21.196Z,13.80
2018-10-17T11:26:21.340Z,13.30
2018-10-17T11:27:21.482Z,12.40
2018-10-17T11:28:21.624Z,12.90
2018-10-17T11:29:21.792Z,12.70
2018-10-17T11:30:21.923Z,12.80
2018-10-17T11:31:22.119Z,12.70
2018-10-17T11:32:22.210Z,12.10
2018-10-17T11:33:22.372Z,11.70
2018-10-17T11:34:22.530Z,12.30
2018-10-17T11:35:22.672Z,12.70
2018-10-17T11:36:22.815Z,12.60
2018-10-17T11:37:23.028Z,12.00
2018-10-17T11:38:23.098Z,12.10
2018-10-17T11:39:23.254Z,12.30
2018-10-17T11:40:23.412Z,11.50
2018-10-17T11:41:23.666Z,10.90
2018-10-17T11:42:23.709Z,10.70
2018-10-17T11:43:23.870Z,10.30
2018-10-17T11:44:24.017Z,10.70
2018-10-17T11:45:24.161Z,10.40
2018-10-17T11:46:24.314Z,10.90
2018-10-17T11:47:24.469Z,12.40
2018-10-17T11:48:24.610Z,12.40
2018-10-17T11:49:24.774Z,11.40
2018-10-17T11:50:24.932Z,10.50
2018-10-17T11:51:25.064Z,11.20
2018-10-17T11:52:25.207Z,11.90
2018-10-17T11:53:25.355Z,11.70
2018-10-17T11:54:25.506Z,12.80
2018-10-17T11:55:25.654Z,11.80
2018-10-17T11:56:25.804Z,11.90
2018-10-17T11:57:25.960Z,11.50
2018-10-17T11:58:26.107Z,9.60
2018-10-17T11:59:26.293Z,13.50
2018-10-17T12:00:26.415Z,15.30
2018-10-17T12:01:26.564Z,10.30
2018-10-17T12:02:26.713Z,11.60
2018-10-17T12:03:26.954Z,11.40
2018-10-17T12:04:27.398Z,10.10
2018-10-17T12:05:27.492Z,13.60
2018-10-17T12:06:27.377Z,13.20
2018-10-17T12:07:27.472Z,11.10
2018-10-17T12:08:27.624Z,12.10
2018-10-17T12:09:27.812Z,10.30
2018-10-17T12:10:27.969Z,9.80
2018-10-17T12:11:28.224Z,11.70
2018-10-17T12:12:28.365Z,9.80
2018-10-17T12:13:28.458Z,8.80
2018-10-17T12:14:28.605Z,8.90
2018-10-17T12:15:28.757Z,9.90
2018-10-17T12:16:28.912Z,9.40
2018-10-17T12:17:29.060Z,9.10
2018-10-17T12:18:29.213Z,8.90
2018-10-17T12:19:29.359Z,9.30
2018-10-17T12:20:29.536Z,9.70
2018-10-17T12:21:29.769Z,8.80
2018-10-17T12:22:29.842Z,8.70
2018-10-17T12:23:29.999Z,8.20
2018-10-17T12:24:30.181Z,7.70
2018-10-17T12:25:30.376Z,9.00
2018-10-17T12:26:30.474Z,8.00
2018-10-17T12:27:30.624Z,8.20
2018-10-17T12:28:30.887Z,10.30
2018-10-17T12:29:30.932Z,8.40
2018-10-17T12:30:31.086Z,8.30
2018-10-17T12:31:31.231Z,8.30
2018-10-17T12:32:31.387Z,8.40
2018-10-17T12:33:31.563Z,8.50
2018-10-17T12:34:31.709Z,8.80
2018-10-17T12:35:31.864Z,8.80
2018-10-17T12:36:32.017Z,8.30
2018-10-17T12:37:32.191Z,9.50
2018-10-17T12:38:32.337Z,9.60
2018-10-17T12:39:32.609Z,8.80
2018-10-17T12:40:32.771Z,11.00
2018-10-17T12:41:32.886Z,10.60
2018-10-17T12:42:32.986Z,9.20
2018-10-17T12:43:33.136Z,9.50
2018-10-17T12:44:33.287Z,8.30
2018-10-17T12:45:33.527Z,8.60
2018-10-17T12:46:33.632Z,9.20
2018-10-17T12:47:33.783Z,7.70
2018-10-17T12:48:33.935Z,7.90
2018-10-17T12:49:34.125Z,8.60
2018-10-17T12:50:34.253Z,9.10
2018-10-17T12:51:34.404Z,9.30
2018-10-17T12:52:34.674Z,9.60
2018-10-17T12:53:34.794Z,8.70
2018-10-17T12:54:34.895Z,7.70
2018-10-17T12:55:35.050Z,7.70
2018-10-17T12:56:35.211Z,7.40
2018-10-17T12:57:35.368Z,7.90
2018-10-17T12:58:35.524Z,8.00